CheckWX is a tool to help pilots better visualize weather data.  It is not intended as a substitute for an official pre-flight weather briefing.

02:51:34 UTC

KHQG METAR
Hugoton Municipal Airport
Hugoton, Kansas, USA
Current

17 mins ago

KHQG 240235Z AUTO 36007KT 10SM CLR 09/05 A2998 RMK AO2 T00860047
Observed
Mar-24 @ 02:35 UTC
Wind
  • 360° at 7 KTS
Visibility
10 SM
Flight Rules
VFR
Cloud Levels
  • Clear skies
Temperature
C / 48°F
Dewpoint
C / 41°F
Humidity
76%
Altimeter
29.98" Hg
Pressure
1015.22 hPa
Previous

37 mins ago

KHQG 240215Z AUTO 36011KT 10SM CLR 10/05 A2995 RMK AO2 T00980047
Observed
Mar-24 @ 02:15 UTC
Wind
  • 360° at 11 KTS
Visibility
10 SM
Flight Rules
VFR
Cloud Levels
  • Clear skies
Temperature
10°C / 50°F
Dewpoint
C / 41°F
Humidity
71%
Altimeter
29.95" Hg
Pressure
1014.22 hPa
Previous

57 mins ago

KHQG 240155Z AUTO 01009KT 10SM CLR 10/05 A2994 RMK AO2 T01010051
Observed
Mar-24 @ 01:55 UTC
Wind
  • 010° at 9 KTS
Visibility
10 SM
Flight Rules
VFR
Cloud Levels
  • Clear skies
Temperature
10°C / 50°F
Dewpoint
C / 41°F
Humidity
71%
Altimeter
29.94" Hg
Pressure
1013.92 hPa